Time;durP1;ratioP1;P1;durP2;ratioP2;P2;SDS_P1;SDS_P2;PMS_P1;PMS_P2;Temp;Humidity;BMP_temperature;BMP_pressure;BME280_temperature;BME280_humidity;BME280_pressure;Samples;Min_cycle;Max_cycle;Signal;HPM_P1;HPM_P2
2022/08/18 00:02:00;;;;;;;11.07;7.25;;;;;;;24.92;46.60;98975.91;5051761;28;20522;-75
2022/08/18 00:04:26;;;;;;;7.50;6.45;;;;;;;25.00;46.33;98979.41;5051692;28;20044;-75
2022/08/18 00:06:51;;;;;;;8.05;6.93;;;;;;;25.13;45.93;98975.81;5050896;28;20503;-75
2022/08/18 00:09:16;;;;;;;7.80;6.97;;;;;;;25.02;45.74;98978.94;5033583;28;20028;-75
2022/08/18 00:11:43;;;;;;;12.68;7.10;;;;;;;25.13;45.67;98976.63;5051579;28;20405;-75
2022/08/18 00:14:19;;;;;;;7.07;6.28;;;;;;;25.13;45.45;98970.88;5024098;28;20128;-75
2022/08/18 00:16:45;;;;;;;7.68;6.97;;;;;;;24.89;46.03;98973.13;5013631;28;20037;-75
2022/08/18 00:19:10;;;;;;;8.45;6.05;;;;;;;24.87;45.84;98970.72;5033180;28;20392;-75
2022/08/18 00:21:36;;;;;;;8.43;6.95;;;;;;;24.90;45.99;98974.75;5033363;28;20040;-75
2022/08/18 00:24:03;;;;;;;11.30;6.80;;;;;;;24.71;46.11;98974.31;5048807;28;20457;-75
2022/08/18 00:26:28;;;;;;;8.45;6.88;;;;;;;24.74;46.72;98979.19;5033006;28;20024;-75
2022/08/18 00:28:53;;;;;;;8.98;6.32;;;;;;;24.73;46.52;98971.81;5051229;28;20037;-75
2022/08/18 00:31:19;;;;;;;9.18;6.93;;;;;;;24.81;46.34;98966.78;5051175;28;20028;-75
2022/08/18 00:33:44;;;;;;;15.43;6.97;;;;;;;24.87;46.16;98969.91;5051123;28;20029;-75
2022/08/18 00:36:10;;;;;;;12.52;6.53;;;;;;;24.70;46.53;98972.72;5049785;28;20039;-75
2022/08/18 00:38:37;;;;;;;10.38;6.50;;;;;;;24.75;46.33;98969.34;5050735;28;20557;-75
2022/08/18 00:41:04;;;;;;;8.38;6.88;;;;;;;24.88;46.12;98965.81;5050839;28;20029;-75
2022/08/18 00:43:42;;;;;;;7.43;6.10;;;;;;;25.09;46.15;98973.03;5051004;28;20075;-75
2022/08/18 00:46:20;;;;;;;11.63;6.85;;;;;;;25.16;45.63;98969.19;5050981;28;20021;-75
2022/08/18 00:48:47;;;;;;;8.48;6.90;;;;;;;25.25;45.52;98969.38;5051106;28;20070;-75
2022/08/18 00:51:42;;;;;;;11.38;6.53;;;;;;;25.19;45.72;98971.97;5049254;28;20472;-75
2022/08/18 00:54:10;;;;;;;8.30;6.65;;;;;;;25.22;46.06;98984.59;5042236;28;20033;-75
2022/08/18 00:56:44;;;;;;;8.73;6.95;;;;;;;25.40;45.32;98983.31;5051056;28;20510;-75
2022/08/18 00:59:28;;;;;;;9.23;6.65;;;;;;;25.30;45.43;98968.81;5050673;28;20029;-75
2022/08/18 01:02:02;;;;;;;10.02;7.10;;;;;;;25.30;45.54;98982.34;5049726;28;20269;-75
2022/08/18 01:04:54;;;;;;;8.98;6.97;;;;;;;25.23;45.26;98977.59;5050829;28;20408;-75
2022/08/18 01:07:28;;;;;;;10.80;7.32;;;;;;;25.06;45.78;98985.38;5036577;28;20037;-75
2022/08/18 01:09:58;;;;;;;9.25;6.88;;;;;;;24.94;46.15;98978.31;5050549;28;20095;-75
2022/08/18 01:12:24;;;;;;;8.48;7.57;;;;;;;24.93;45.98;98979.56;5049716;28;20104;-75
2022/08/18 01:14:49;;;;;;;7.85;6.40;;;;;;;25.13;45.57;98978.69;5047740;28;20056;-75
2022/08/18 01:22:46;;;;;;;7.80;6.03;;;;;;;25.14;45.64;98981.06;5054129;28;20110;-75
2022/08/18 01:28:01;;;;;;;9.88;6.88;;;;;;;24.70;47.05;98983.38;5046191;28;20055;-75
2022/08/18 01:30:27;;;;;;;7.65;6.60;;;;;;;24.62;47.02;98985.59;5054548;28;20124;-75
2022/08/18 01:32:53;;;;;;;11.93;6.63;;;;;;;24.56;47.57;98987.34;5036592;28;20025;-75
2022/08/18 01:35:22;;;;;;;8.75;6.80;;;;;;;24.53;47.40;98989.84;5036470;28;20052;-75
2022/08/18 01:37:48;;;;;;;8.63;6.63;;;;;;;24.75;47.40;98988.53;5054295;28;20027;-75
2022/08/18 01:40:16;;;;;;;11.75;7.47;;;;;;;24.81;47.47;98984.72;5053706;28;20451;-75
2022/08/18 01:42:44;;;;;;;9.20;6.80;;;;;;;24.65;48.15;98987.56;5034951;28;20116;-75
2022/08/18 01:45:11;;;;;;;9.88;7.32;;;;;;;24.60;48.09;98986.03;5053963;28;20116;-75
2022/08/18 01:47:39;;;;;;;11.88;7.00;;;;;;;24.50;48.55;98987.06;5054283;28;20182;-75
2022/08/18 01:50:06;;;;;;;7.75;7.03;;;;;;;24.43;49.14;98988.03;5054063;28;20090;-75
2022/08/18 01:52:34;;;;;;;10.60;7.18;;;;;;;24.04;50.00;98978.25;5054087;28;20571;-75
2022/08/18 01:55:00;;;;;;;13.82;7.28;;;;;;;23.77;50.49;98982.00;5053486;28;20112;-74
2022/08/18 01:57:26;;;;;;;10.07;7.60;;;;;;;23.61;49.80;98974.97;5053766;28;20043;-75
2022/08/18 01:59:52;;;;;;;15.73;8.32;;;;;;;23.82;49.01;98978.66;5053890;28;20029;-75
2022/08/18 02:02:23;;;;;;;11.55;8.32;;;;;;;23.59;50.27;98970.94;5053549;28;20496;-75
2022/08/18 02:04:57;;;;;;;9.75;7.43;;;;;;;23.53;50.09;98976.34;5053807;28;20021;-75
2022/08/18 02:07:23;;;;;;;11.32;6.93;;;;;;;23.86;49.36;98973.66;5053791;28;20029;-75
2022/08/18 02:09:48;;;;;;;13.38;8.77;;;;;;;23.78;49.71;98977.94;5034492;28;20086;-75
2022/08/18 02:12:13;;;;;;;12.65;8.45;;;;;;;23.67;49.46;98976.09;5052569;28;20033;-75
2022/08/18 02:14:39;;;;;;;11.57;7.72;;;;;;;23.77;49.66;98974.25;5035708;28;20079;-75
2022/08/18 02:17:07;;;;;;;9.43;7.25;;;;;;;23.89;49.13;98969.13;5053539;28;20071;-75
2022/08/18 02:19:39;;;;;;;8.30;7.47;;;;;;;23.90;49.37;98973.59;5035359;28;20567;-75
2022/08/18 02:22:06;;;;;;;9.63;7.35;;;;;;;23.94;48.81;98969.44;5015807;28;20037;-75
2022/08/18 02:24:32;;;;;;;9.77;7.30;;;;;;;23.86;49.56;98975.72;5041587;28;20021;-75
2022/08/18 02:26:58;;;;;;;11.10;7.22;;;;;;;23.82;49.83;98978.66;5035620;28;20470;-75
2022/08/18 02:29:23;;;;;;;15.40;7.85;;;;;;;23.84;49.16;98970.44;5035065;28;20036;-74
2022/08/18 02:31:49;;;;;;;9.55;7.93;;;;;;;23.79;49.64;98979.53;5053256;28;20017;-75
2022/08/18 02:34:15;;;;;;;11.25;6.57;;;;;;;24.09;48.62;98974.88;5035185;28;20035;-75
2022/08/18 02:36:41;;;;;;;9.15;7.55;;;;;;;23.76;49.57;98974.69;5015388;28;20033;-75
2022/08/18 02:39:07;;;;;;;9.20;7.70;;;;;;;23.57;50.21;98968.53;5040905;28;20057;-75
2022/08/18 02:41:32;;;;;;;7.93;6.78;;;;;;;23.54;50.59;98975.13;5051930;28;20033;-75
2022/08/18 02:43:58;;;;;;;7.93;7.15;;;;;;;23.78;50.03;98975.88;5034873;28;20032;-75
2022/08/18 02:46:24;;;;;;;10.30;8.20;;;;;;;23.54;51.06;98977.97;5035057;28;20434;-75
2022/08/18 02:48:51;;;;;;;16.50;7.65;;;;;;;23.46;51.37;98977.28;5053086;28;20025;-75
2022/08/18 02:51:17;;;;;;;16.45;8.68;;;;;;;23.23;52.02;98980.91;5052897;28;20096;-75
2022/08/18 02:53:45;;;;;;;18.45;7.82;;;;;;;23.19;52.22;98988.75;5051355;28;20196;-75
2022/08/18 02:56:22;;;;;;;14.88;8.50;;;;;;;23.42;51.81;98985.91;5033989;28;20117;-75
2022/08/18 02:58:54;;;;;;;14.18;8.25;;;;;;;23.44;51.76;98994.03;5034895;28;20048;-75
2022/08/18 03:01:20;;;;;;;17.67;8.48;;;;;;;23.47;51.76;98987.47;5052529;28;20397;-75
2022/08/18 03:03:47;;;;;;;17.85;8.20;;;;;;;23.66;51.44;98983.03;5052857;28;20115;-75
2022/08/18 03:06:13;;;;;;;13.18;8.35;;;;;;;23.51;51.10;98987.38;5052637;28;20029;-75
2022/08/18 03:08:38;;;;;;;15.23;8.55;;;;;;;23.17;52.07;98985.50;5051657;28;20403;-74
2022/08/18 03:11:04;;;;;;;10.20;8.02;;;;;;;23.23;52.09;98996.00;5052475;28;20116;-75
2022/08/18 03:13:29;;;;;;;15.05;8.40;;;;;;;23.18;52.23;98987.13;5034901;28;20021;-74
2022/08/18 03:15:55;;;;;;;15.38;8.43;;;;;;;23.31;51.75;98999.56;5052557;28;20025;-75
2022/08/18 03:18:22;;;;;;;17.50;8.63;;;;;;;23.24;51.27;98993.94;5052313;28;20158;-75
2022/08/18 03:20:49;;;;;;;22.50;8.15;;;;;;;23.44;51.26;98993.25;5030933;28;20123;-75
2022/08/18 03:23:15;;;;;;;11.82;7.85;;;;;;;23.57;50.72;98994.22;5046579;28;20032;-75
2022/08/18 03:25:47;;;;;;;20.27;8.43;;;;;;;23.73;50.20;98990.66;5045772;28;20027;-75
2022/08/18 03:28:14;;;;;;;14.43;8.25;;;;;;;23.76;50.50;98992.63;5034134;28;20143;-75
2022/08/18 03:30:39;;;;;;;35.92;10.40;;;;;;;23.70;50.47;98998.03;5052029;28;20021;-75
2022/08/18 03:33:05;;;;;;;19.08;9.07;;;;;;;23.47;51.21;98986.66;5034424;28;20036;-80
2022/08/18 03:35:33;;;;;;;15.10;8.57;;;;;;;23.56;51.23;98995.47;5052212;28;20507;-78
2022/08/18 03:37:59;;;;;;;15.52;9.07;;;;;;;23.45;52.19;98997.69;5052229;28;20029;-78
2022/08/18 03:40:24;;;;;;;10.73;8.25;;;;;;;23.47;52.02;98992.34;5050819;28;20044;-80
2022/08/18 03:42:50;;;;;;;9.95;8.73;;;;;;;23.35;52.38;98991.75;5051494;28;20017;-76
2022/08/18 03:45:16;;;;;;;20.48;9.10;;;;;;;23.22;53.06;98993.56;5033949;28;20024;-74
2022/08/18 03:47:44;;;;;;;17.20;10.73;;;;;;;23.25;53.39;98995.56;5051850;28;20025;-72
2022/08/18 03:50:10;;;;;;;18.55;8.80;;;;;;;23.03;53.68;98987.34;5033653;28;20035;-73
2022/08/18 03:52:37;;;;;;;18.15;8.65;;;;;;;22.85;53.87;99005.56;5050469;28;20099;-73
2022/08/18 03:55:04;;;;;;;21.48;8.68;;;;;;;22.73;53.73;98997.59;5033775;28;20033;-74
2022/08/18 03:57:32;;;;;;;8.55;7.63;;;;;;;22.60;53.95;98991.66;5049272;28;20032;-72
2022/08/18 03:59:58;;;;;;;92.72;55.78;;;;;;;22.88;53.58;98998.19;5032318;28;20017;-73
2022/08/18 04:02:24;;;;;;;43.35;22.52;;;;;;;23.07;52.56;98998.72;5050488;28;20022;-74
2022/08/18 04:04:50;;;;;;;106.68;67.80;;;;;;;23.21;52.31;98997.66;5033640;28;20055;-74
2022/08/18 04:07:16;;;;;;;59.22;37.10;;;;;;;23.33;51.96;99005.63;5050365;28;20025;-73
2022/08/18 04:09:42;;;;;;;37.05;22.88;;;;;;;23.39;51.70;99009.59;5050166;28;20480;-74
2022/08/18 04:12:14;;;;;;;15.82;11.77;;;;;;;23.54;51.48;99015.06;5051845;28;20024;-74
2022/08/18 04:14:41;;;;;;;33.28;17.48;;;;;;;23.73;51.01;99018.38;5051205;28;20036;-73
2022/08/18 04:17:07;;;;;;;20.17;9.82;;;;;;;23.56;51.25;99024.78;5033297;28;20410;-74
2022/08/18 04:19:34;;;;;;;17.40;9.30;;;;;;;23.78;50.87;99012.97;5033611;28;20459;-74
2022/08/18 04:22:02;;;;;;;18.98;10.38;;;;;;;24.10;49.65;99037.28;5051190;28;20028;-74
2022/08/18 04:24:29;;;;;;;28.88;12.45;;;;;;;24.09;49.72;99034.84;5050255;28;20099;-74
2022/08/18 04:26:56;;;;;;;24.10;10.73;;;;;;;23.96;49.77;99031.84;5051270;28;20517;-74
2022/08/18 04:29:22;;;;;;;24.88;10.35;;;;;;;24.00;50.36;99037.44;5051350;28;20025;-74
2022/08/18 04:31:50;;;;;;;16.98;8.82;;;;;;;23.96;50.43;99023.25;5032680;28;20063;-74
2022/08/18 04:34:17;;;;;;;21.58;10.27;;;;;;;23.77;50.99;99034.22;5051140;28;20025;-74
2022/08/18 04:36:43;;;;;;;30.55;10.35;;;;;;;23.89;50.86;99035.63;5033137;28;20415;-74
2022/08/18 04:39:11;;;;;;;19.65;9.82;;;;;;;23.93;51.02;99035.53;5049766;28;20052;-74
2022/08/18 04:41:38;;;;;;;12.32;8.18;;;;;;;24.09;50.86;99043.44;5033099;28;20119;-74
2022/08/18 04:44:07;;;;;;;13.77;8.25;;;;;;;24.09;50.70;99037.72;5051109;28;20025;-74
2022/08/18 04:46:48;;;;;;;11.07;7.57;;;;;;;24.32;49.62;99038.88;5032895;28;20448;-74
2022/08/18 04:49:15;;;;;;;17.80;8.13;;;;;;;24.53;49.39;99044.16;5051046;28;20462;-73
2022/08/18 04:53:43;;;;;;;10.27;7.75;;;;;;;24.40;50.75;99048.94;5050795;28;20047;-74
2022/08/18 04:54:37;;;;;;;16.98;9.32;;;;;;;24.39;51.51;99044.47;5041913;28;20120;-74
2022/08/18 04:57:12;;;;;;;23.67;8.63;;;;;;;24.52;51.45;99041.72;5053747;28;20029;-74
2022/08/18 04:59:40;;;;;;;12.57;8.73;;;;;;;24.57;51.19;99035.50;5055169;28;20410;-74
2022/08/18 05:02:07;;;;;;;21.40;10.38;;;;;;;24.66;50.67;99047.13;5035644;28;20033;-74
2022/08/18 05:04:39;;;;;;;21.83;11.10;;;;;;;24.90;50.23;99043.38;5037176;28;20110;-74
2022/08/18 05:07:06;;;;;;;14.27;9.23;;;;;;;25.03;50.38;99041.44;5035484;28;20128;-74
2022/08/18 05:09:32;;;;;;;16.30;8.30;;;;;;;25.15;49.56;99036.25;5049579;28;20029;-73
2022/08/18 05:12:00;;;;;;;11.38;7.55;;;;;;;25.13;47.75;99035.91;5055540;28;20086;-74
2022/08/18 05:14:26;;;;;;;8.68;7.00;;;;;;;25.17;46.89;99036.59;5054638;28;20036;-74
2022/08/18 05:16:52;;;;;;;17.55;8.80;;;;;;;25.28;45.97;99034.28;5045635;28;20033;-74
2022/08/18 05:19:21;;;;;;;15.55;7.53;;;;;;;25.46;46.39;99038.75;5043331;28;20021;-74
2022/08/18 05:21:47;;;;;;;13.43;7.82;;;;;;;25.18;47.07;99039.03;5043074;28;20036;-74
2022/08/18 05:24:12;;;;;;;15.38;8.70;;;;;;;25.22;47.64;99033.22;5046677;28;20043;-75
2022/08/18 05:26:40;;;;;;;11.82;7.78;;;;;;;25.33;46.95;99032.94;5050732;28;20033;-74
2022/08/18 05:29:06;;;;;;;9.98;8.18;;;;;;;25.47;46.36;99023.19;5049978;28;20102;-74
2022/08/18 05:31:32;;;;;;;30.02;9.80;;;;;;;25.53;45.94;99032.88;5043259;28;20100;-75
2022/08/18 05:34:01;;;;;;;9.52;7.93;;;;;;;25.67;46.03;99025.97;5053388;28;20035;-74
2022/08/18 05:36:48;;;;;;;11.40;8.48;;;;;;;25.77;46.17;99029.78;5053933;28;20021;-74
2022/08/18 05:39:31;;;;;;;14.55;8.30;;;;;;;26.02;45.59;99036.91;5034045;28;20054;-74
2022/08/18 05:42:10;;;;;;;19.42;8.57;;;;;;;26.11;44.53;99031.31;5027417;28;20171;-74
2022/08/18 05:44:43;;;;;;;15.15;7.18;;;;;;;26.27;44.64;99038.28;5029366;28;20040;-74
2022/08/18 05:47:16;;;;;;;14.90;6.28;;;;;;;26.33;44.28;99030.72;5039700;28;20094;-73
2022/08/18 05:49:45;;;;;;;15.68;7.53;;;;;;;26.36;44.13;99044.16;5047814;28;20082;-73
2022/08/18 05:52:18;;;;;;;7.50;6.68;;;;;;;26.29;43.80;99030.84;5050380;28;20028;-74
2022/08/18 05:57:44;;;;;;;13.65;7.45;;;;;;;26.40;43.94;99033.38;5051206;28;20485;-77
2022/08/18 06:00:10;;;;;;;9.50;7.13;;;;;;;26.57;44.29;99034.09;5050572;28;20475;-79
2022/08/18 06:03:12;;;;;;;14.30;8.35;;;;;;;26.71;42.56;99027.13;5041962;28;20033;-74
2022/08/18 06:05:48;;;;;;;11.65;7.10;;;;;;;26.93;42.77;99035.09;5024117;28;20139;-77
2022/08/18 06:08:16;;;;;;;13.63;7.55;;;;;;;27.12;42.81;99038.16;5040711;28;20119;-79
2022/08/18 06:10:49;;;;;;;14.98;7.45;;;;;;;27.25;42.94;99041.84;5049475;28;20033;-78
2022/08/18 06:13:18;;;;;;;9.68;6.93;;;;;;;27.11;41.31;99046.00;5043408;28;20067;-77
2022/08/18 06:16:25;;;;;;;15.48;7.32;;;;;;;27.32;41.61;99046.53;5018388;28;20091;-79
2022/08/18 06:18:57;;;;;;;15.48;8.02;;;;;;;27.44;41.22;99044.91;5018010;28;20048;-77
2022/08/18 06:21:31;;;;;;;16.13;8.25;;;;;;;27.39;41.19;99040.56;5052284;28;20036;-77
2022/08/18 06:24:20;;;;;;;16.05;8.60;;;;;;;27.52;39.98;99034.81;5032858;28;20025;-79
2022/08/18 06:27:16;;;;;;;7.93;6.93;;;;;;;27.43;40.24;99043.31;5053143;28;20078;-74
2022/08/18 06:29:46;;;;;;;11.82;6.75;;;;;;;27.66;39.81;99039.25;5020055;28;20456;-75
2022/08/18 06:32:36;;;;;;;12.75;6.93;;;;;;;27.68;39.95;99041.69;5030674;28;20082;-74
2022/08/18 06:35:17;;;;;;;8.55;7.30;;;;;;;27.95;39.03;99043.19;5031156;28;20060;-72
2022/08/18 06:41:16;;;;;;;27.55;7.72;;;;;;;28.35;38.43;99039.69;5044414;28;20116;-73
2022/08/18 06:44:01;;;;;;;18.55;6.65;;;;;;;28.57;38.29;99038.88;5035363;28;20036;-72
2022/08/18 06:46:46;;;;;;;16.67;6.75;;;;;;;28.62;38.37;99035.41;5049697;28;20491;-74
2022/08/18 06:49:38;;;;;;;11.48;6.78;;;;;;;28.64;38.69;99038.59;5052813;28;20499;-77
2022/08/18 06:52:30;;;;;;;15.90;7.28;;;;;;;28.70;38.24;99036.72;5034168;28;20079;-77
2022/08/18 06:55:00;;;;;;;8.23;7.30;;;;;;;28.68;38.52;99033.50;5029041;28;20115;-75
2022/08/18 06:57:35;;;;;;;10.27;6.50;;;;;;;28.82;38.43;99031.38;5052781;28;20029;-78
2022/08/18 07:00:25;;;;;;;19.27;8.20;;;;;;;29.10;38.25;99040.13;5052677;28;20518;-75
2022/08/18 07:03:03;;;;;;;10.27;6.47;;;;;;;29.10;37.78;99028.63;5036339;28;20010;-75
2022/08/18 07:05:31;;;;;;;16.13;7.28;;;;;;;29.30;36.97;99031.06;5032749;28;20051;-73
2022/08/18 07:08:00;;;;;;;13.18;7.10;;;;;;;29.51;37.50;99023.63;5034732;28;20025;-75
2022/08/18 07:10:33;;;;;;;7.18;6.22;;;;;;;29.63;36.58;99023.97;5040596;28;20032;-74
2022/08/18 07:13:27;;;;;;;15.30;6.45;;;;;;;29.71;36.62;99019.50;5032895;28;20021;-74
2022/08/18 07:16:33;;;;;;;10.95;6.50;;;;;;;29.72;36.54;99018.22;5049025;28;20462;-74
2022/08/18 07:19:14;;;;;;;13.55;7.20;;;;;;;29.82;37.07;99024.78;5034013;28;20064;-74
2022/08/18 07:21:41;;;;;;;10.38;6.40;;;;;;;29.96;37.18;99014.72;5052476;28;20446;-74
2022/08/18 07:24:07;;;;;;;11.45;6.00;;;;;;;30.23;36.54;99016.00;5051164;28;20147;-74
2022/08/18 07:27:00;;;;;;;9.48;6.10;;;;;;;30.45;35.28;99018.66;5033834;28;20087;-73
2022/08/18 07:29:31;;;;;;;14.73;5.53;;;;;;;30.46;34.76;99010.81;5038895;28;20082;-74
2022/08/18 07:32:02;;;;;;;19.95;6.00;;;;;;;30.72;34.44;99025.69;5033929;28;20036;-74
2022/08/18 07:34:39;;;;;;;8.45;6.30;;;;;;;30.77;33.88;99009.78;5051987;28;20028;-74
2022/08/18 07:37:28;;;;;;;24.17;6.28;;;;;;;30.93;33.32;99015.19;5050915;28;20029;-74
2022/08/18 07:40:10;;;;;;;27.20;7.15;;;;;;;30.68;34.05;99005.66;5050541;28;20108;-75
2022/08/18 07:42:47;;;;;;;10.88;5.75;;;;;;;30.56;34.00;99008.72;5052077;28;20029;-74
2022/08/18 07:45:28;;;;;;;15.75;6.13;;;;;;;30.58;33.96;99009.84;5033782;28;20032;-73
2022/08/18 07:48:02;;;;;;;10.68;6.18;;;;;;;30.86;33.62;98998.22;5034037;28;20039;-74
2022/08/18 07:50:36;;;;;;;9.57;5.53;;;;;;;30.89;33.27;99005.09;5051477;28;20032;-74
2022/08/18 07:53:26;;;;;;;9.10;5.65;;;;;;;30.84;33.82;98997.91;5029143;28;20033;-73
2022/08/18 07:56:01;;;;;;;7.38;5.47;;;;;;;31.14;32.50;98991.50;5050032;28;20028;-74
2022/08/18 07:58:50;;;;;;;9.27;5.43;;;;;;;31.17;32.67;99007.84;5054462;28;20032;-73
2022/08/18 08:01:24;;;;;;;7.78;5.72;;;;;;;31.61;31.42;98997.81;5035303;28;20053;-74
2022/08/18 08:04:00;;;;;;;7.03;5.35;;;;;;;31.57;30.96;99002.97;5030864;28;20488;-74
2022/08/18 08:06:37;;;;;;;17.40;5.50;;;;;;;31.49;30.69;99000.47;5029985;28;20032;-74
2022/08/18 08:09:29;;;;;;;9.90;5.57;;;;;;;31.66;30.98;98989.25;5047499;28;20031;-74
2022/08/18 08:12:08;;;;;;;16.05;6.00;;;;;;;31.73;30.62;98985.19;5033669;28;20040;-77
2022/08/18 08:14:40;;;;;;;13.50;5.50;;;;;;;31.94;30.50;98979.59;5033854;28;20131;-75
2022/08/18 08:17:37;;;;;;;14.45;5.47;;;;;;;31.92;30.14;98985.06;5033449;28;20041;-74
2022/08/18 08:20:07;;;;;;;12.10;5.30;;;;;;;31.82;30.58;98995.13;5032741;28;20067;-75
2022/08/18 08:22:51;;;;;;;;;;;;;;;31.80;30.19;98986.97;5026001;28;20091;-77
2022/08/18 08:25:22;;;;;;;9.57;5.00;;;;;;;32.10;30.31;98980.41;5032819;28;19913;-75
2022/08/18 08:28:08;;;;;;;10.23;5.20;;;;;;;32.44;30.04;98990.53;5048090;28;20484;-79
2022/08/18 08:31:01;;;;;;;8.50;5.30;;;;;;;32.17;29.37;98977.13;5044197;28;20030;-76
2022/08/18 08:33:44;;;;;;;6.63;5.53;;;;;;;32.25;29.92;98971.75;5041073;28;20051;-77
2022/08/18 08:36:26;;;;;;;5.22;4.72;;;;;;;32.51;28.97;98976.97;5055998;28;20078;-73
2022/08/18 08:39:03;;;;;;;10.93;5.40;;;;;;;32.45;29.35;98974.78;5034028;28;20094;-75
2022/08/18 08:41:39;;;;;;;7.95;5.05;;;;;;;32.57;29.43;98975.75;5038504;28;20021;-76
2022/08/18 08:44:11;;;;;;;5.40;4.50;;;;;;;32.60;29.15;98974.78;5046281;28;20060;-76
2022/08/18 08:47:01;;;;;;;8.70;5.05;;;;;;;32.59;29.06;98976.06;5042128;28;20068;-75
2022/08/18 08:49:45;;;;;;;10.40;4.72;;;;;;;32.53;28.76;98983.84;5047218;28;20029;-81
2022/08/18 08:52:28;;;;;;;8.65;5.22;;;;;;;32.35;28.77;98976.97;5036004;28;20051;-76
2022/08/18 08:55:08;;;;;;;7.50;5.30;;;;;;;32.49;29.43;98971.69;5028366;28;20040;-73
2022/08/18 08:57:49;;;;;;;;;;;;;;;32.50;29.75;98976.19;5026449;28;20029;-77
2022/08/18 09:00:14;;;;;;;23.50;6.53;;;;;;;32.61;29.45;98976.38;5047242;28;19917;-76
2022/08/18 09:03:07;;;;;;;6.50;4.18;;;;;;;32.49;29.22;98969.56;5045685;28;20071;-75
2022/08/18 09:06:10;;;;;;;9.45;5.32;;;;;;;32.73;29.41;98979.44;5035456;28;20653;-75
2022/08/18 09:08:35;;;;;;;6.70;4.63;;;;;;;32.76;29.43;98972.66;5028842;28;20025;-75
2022/08/18 09:11:47;;;;;;;9.13;4.93;;;;;;;32.73;29.32;98974.44;5030546;28;20030;-74
2022/08/18 09:14:42;;;;;;;7.80;5.22;;;;;;;33.05;29.31;98963.13;4965847;28;20042;-78
2022/08/18 09:17:23;;;;;;;10.02;5.30;;;;;;;33.28;28.60;98960.56;4985845;28;20552;-80
2022/08/18 09:19:55;;;;;;;7.70;5.18;;;;;;;33.09;28.50;98960.03;4979241;28;20093;-75
2022/08/18 09:22:38;;;;;;;5.65;5.15;;;;;;;33.12;28.21;98961.91;4981539;28;20074;-75
2022/08/18 09:25:37;;;;;;;8.27;4.57;;;;;;;32.86;28.72;98950.97;4983042;28;20069;-75
2022/08/18 09:28:10;;;;;;;7.72;4.65;;;;;;;33.37;28.02;98950.13;4968880;28;20034;-74
2022/08/18 09:30:38;;;;;;;9.07;5.43;;;;;;;33.07;27.56;98959.75;4987706;28;20120;-75
2022/08/18 09:33:18;;;;;;;9.30;5.65;;;;;;;33.10;27.73;98952.94;4980625;28;20121;-74
2022/08/18 09:36:09;;;;;;;13.35;5.57;;;;;;;33.71;26.93;98954.25;4960114;28;20062;-77
2022/08/18 09:41:44;;;;;;;9.68;5.20;;;;;;;33.73;27.11;98960.34;4978820;28;20526;-80
2022/08/18 09:44:13;;;;;;;7.82;5.68;;;;;;;33.53;27.47;98943.78;4973770;28;20029;-79
2022/08/18 09:46:41;;;;;;;5.80;4.57;;;;;;;33.86;26.36;98954.19;5038989;28;20024;-80
2022/08/18 09:49:28;;;;;;;8.43;4.53;;;;;;;33.68;27.43;98949.50;5034308;28;20025;-79
2022/08/18 09:51:59;;;;;;;10.50;4.72;;;;;;;33.95;25.74;98941.63;5015979;28;20085;-78
2022/08/18 09:54:29;;;;;;;5.32;4.82;;;;;;;33.59;25.74;98946.75;5044041;28;20037;-79
2022/08/18 09:57:16;;;;;;;9.57;5.13;;;;;;;33.67;25.47;98944.19;5028729;28;20033;-78
2022/08/18 09:59:44;;;;;;;8.13;5.25;;;;;;;33.43;25.47;98924.91;5027243;28;20059;-78
2022/08/18 10:02:31;;;;;;;5.45;4.60;;;;;;;33.84;25.86;98927.78;5029886;28;20037;-78
2022/08/18 10:08:07;;;;;;;9.88;4.50;;;;;;;34.39;24.56;98930.97;5032428;28;20037;-79
2022/08/18 10:10:43;;;;;;;5.70;4.57;;;;;;;33.93;23.96;98923.94;5024826;28;20416;-78
2022/08/18 10:13:36;;;;;;;7.07;5.15;;;;;;;34.32;24.34;98919.03;5034994;28;21347;-79
2022/08/18 10:16:17;;;;;;;5.50;4.70;;;;;;;34.56;24.43;98918.72;5029523;28;20034;-77
2022/08/18 10:19:28;;;;;;;11.07;5.18;;;;;;;34.17;24.24;98917.84;5031271;28;20100;-76
2022/08/18 10:22:00;;;;;;;4.80;4.40;;;;;;;34.33;24.14;98914.81;5028640;28;20033;-79
2022/08/18 10:24:42;;;;;;;7.20;5.00;;;;;;;34.54;24.49;98909.75;5030100;28;20033;-79
2022/08/18 10:27:45;;;;;;;8.45;5.25;;;;;;;34.84;24.64;98924.75;5020775;28;20047;-78
2022/08/18 10:30:33;;;;;;;12.05;5.85;;;;;;;35.03;24.13;98915.66;5029578;28;20022;-79
2022/08/18 10:33:02;;;;;;;6.78;4.90;;;;;;;35.06;23.46;98913.81;5001004;28;20041;-78
2022/08/18 10:35:36;;;;;;;7.70;5.50;;;;;;;34.74;24.10;98917.53;5032569;28;20033;-78
2022/08/18 10:38:27;;;;;;;4.95;4.43;;;;;;;34.96;23.46;98908.19;5029389;28;20554;-78
2022/08/18 10:41:09;;;;;;;7.35;4.68;;;;;;;35.22;23.10;98909.41;5031990;28;20124;-78
2022/08/18 10:43:41;;;;;;;7.53;4.82;;;;;;;35.24;22.59;98907.56;5029477;28;20045;-78
2022/08/18 10:46:23;;;;;;;7.63;4.72;;;;;;;35.61;23.05;98902.19;5049898;28;20094;-77
2022/08/18 10:49:05;;;;;;;16.48;5.32;;;;;;;35.78;23.22;98905.94;5034148;28;20102;-78
2022/08/18 10:51:43;;;;;;;10.30;4.95;;;;;;;35.53;22.46;98901.88;5032964;28;20033;-78
2022/08/18 10:54:43;;;;;;;7.78;4.57;;;;;;;35.10;23.56;98894.03;5032771;28;20135;-78
2022/08/18 10:57:27;;;;;;;9.20;5.18;;;;;;;35.36;23.03;98901.81;5042069;28;20059;-78
2022/08/18 11:00:12;;;;;;;6.68;4.68;;;;;;;35.54;23.62;98888.94;5032843;28;20135;-79
2022/08/18 11:03:08;;;;;;;6.28;4.63;;;;;;;35.89;22.19;98881.91;5051315;28;20028;-78
2022/08/18 11:05:34;;;;;;;5.28;4.78;;;;;;;35.93;21.74;98882.41;5052029;28;20039;-78
2022/08/18 11:08:05;;;;;;;8.30;5.13;;;;;;;36.10;22.52;98867.91;5032302;28;20029;-78
2022/08/18 11:10:47;;;;;;;9.32;4.78;;;;;;;35.30;22.79;98884.34;5048876;28;20104;-78
2022/08/18 11:13:31;;;;;;;6.40;4.88;;;;;;;35.75;23.08;98882.94;5031969;28;20435;-78
2022/08/18 11:16:12;;;;;;;10.45;4.97;;;;;;;35.79;22.35;98871.81;5042457;28;20029;-78
2022/08/18 11:18:45;;;;;;;7.05;5.35;;;;;;;35.09;23.70;98872.88;5049351;28;20047;-78
2022/08/18 11:21:35;;;;;;;7.00;4.45;;;;;;;35.38;23.30;98878.81;5051645;28;20416;-78
2022/08/18 11:24:07;;;;;;;9.68;4.60;;;;;;;35.40;23.76;98873.28;5048017;28;20029;-79
2022/08/18 11:26:48;;;;;;;7.03;4.40;;;;;;;35.67;23.48;98871.81;5048141;28;20029;-78
2022/08/18 11:29:22;;;;;;;10.13;5.20;;;;;;;35.87;22.67;98866.28;5032831;28;20036;-78
2022/08/18 11:31:52;;;;;;;8.27;5.15;;;;;;;35.86;23.05;98853.88;5044356;28;20099;-78
2022/08/18 11:34:24;;;;;;;6.90;5.15;;;;;;;35.30;22.91;98861.09;5031892;28;20119;-78
2022/08/18 11:37:29;;;;;;;8.27;5.68;;;;;;;35.84;23.00;98850.69;5050182;28;20037;-77
2022/08/18 11:39:59;;;;;;;7.30;4.85;;;;;;;36.14;22.88;98855.22;5028335;28;20076;-77
2022/08/18 11:42:34;;;;;;;6.97;4.90;;;;;;;36.09;22.42;98851.00;5042613;28;20045;-79
2022/08/18 11:45:09;;;;;;;8.15;4.75;;;;;;;36.50;22.34;98847.53;5035653;28;20036;-78
2022/08/18 11:47:37;;;;;;;8.00;5.30;;;;;;;36.48;21.92;98838.53;5046317;28;20025;-78
2022/08/18 11:50:11;;;;;;;9.55;6.40;;;;;;;36.28;22.58;98847.56;5031429;28;20039;-78
2022/08/18 11:52:52;;;;;;;12.20;5.70;;;;;;;35.74;22.25;98847.22;5026895;28;20048;-77
2022/08/18 11:55:30;;;;;;;5.20;4.70;;;;;;;35.88;23.19;98827.97;5050325;28;20029;-78
2022/08/18 11:57:56;;;;;;;10.05;4.28;;;;;;;36.32;21.85;98831.41;5047925;28;20028;-79
2022/08/18 12:00:46;;;;;;;8.27;4.95;;;;;;;36.83;22.67;98835.59;5046262;28;20107;-77
2022/08/18 12:03:29;;;;;;;8.25;4.45;;;;;;;37.20;22.17;98835.19;5043158;28;20102;-79
2022/08/18 12:06:09;;;;;;;7.97;4.57;;;;;;;37.16;21.83;98831.78;5032501;28;20052;-78
2022/08/18 12:08:46;;;;;;;7.07;4.82;;;;;;;36.84;20.93;98835.03;5049331;28;20092;-79
2022/08/18 12:11:19;;;;;;;7.13;4.45;;;;;;;37.02;21.27;98821.22;5034161;28;20108;-78
2022/08/18 12:13:47;;;;;;;4.97;4.55;;;;;;;37.30;20.30;98818.19;5050054;28;20488;-78
2022/08/18 12:16:29;;;;;;;9.05;4.88;;;;;;;36.84;21.39;98819.69;5037010;28;20108;-79
2022/08/18 12:18:55;;;;;;;7.55;5.15;;;;;;;37.42;21.72;98821.06;5034179;28;20416;-79
2022/08/18 12:21:20;;;;;;;7.88;5.10;;;;;;;37.23;20.68;98818.75;5031844;28;20033;-79
2022/08/18 12:23:47;;;;;;;5.50;4.97;;;;;;;37.08;20.88;98816.16;5029780;28;20077;-78